createdAt,value
2022-07-26T00:01:06.038Z,2.90
2022-07-26T00:03:33.830Z,2.92
2022-07-26T00:06:01.434Z,3.08
2022-07-26T00:08:28.889Z,2.95
2022-07-26T00:10:56.828Z,3.25
2022-07-26T00:13:24.439Z,2.85
2022-07-26T00:15:59.133Z,3.08
2022-07-26T00:18:26.966Z,3.20
2022-07-26T00:20:55.470Z,3.08
2022-07-26T00:23:24.015Z,2.70
2022-07-26T00:25:52.060Z,3.17
2022-07-26T00:28:19.837Z,2.78
2022-07-26T00:30:48.179Z,2.80
2022-07-26T00:33:16.320Z,3.37
2022-07-26T00:35:43.945Z,2.70
2022-07-26T00:38:11.932Z,3.28
2022-07-26T00:40:40.363Z,3.20
2022-07-26T00:43:10.601Z,2.33
2022-07-26T00:45:38.793Z,2.75
2022-07-26T00:48:06.844Z,2.83
2022-07-26T00:50:35.108Z,3.10
2022-07-26T00:53:04.118Z,2.67
2022-07-26T00:55:32.546Z,2.60
2022-07-26T00:58:03.210Z,2.78
2022-07-26T01:00:33.142Z,2.90
2022-07-26T01:03:02.820Z,2.90
2022-07-26T01:05:32.133Z,2.90
2022-07-26T01:10:36.063Z,2.28
2022-07-26T01:13:05.945Z,2.87
2022-07-26T01:15:35.027Z,2.55
2022-07-26T01:18:03.062Z,3.03
2022-07-26T01:20:30.778Z,2.55
2022-07-26T01:22:58.576Z,2.22
2022-07-26T01:25:31.655Z,2.95
2022-07-26T01:27:59.245Z,2.55
2022-07-26T01:30:27.620Z,2.60
2022-07-26T01:32:55.441Z,2.72
2022-07-26T01:35:23.171Z,2.40
2022-07-26T01:37:52.464Z,2.65
2022-07-26T01:40:21.074Z,3.28
2022-07-26T01:42:48.651Z,2.78
2022-07-26T01:45:17.135Z,3.20
2022-07-26T01:47:51.038Z,2.50
2022-07-26T01:50:20.470Z,2.53
2022-07-26T01:52:48.382Z,2.72
2022-07-26T01:55:16.055Z,2.72
2022-07-26T01:57:45.578Z,3.20
2022-07-26T02:00:13.719Z,2.72
2022-07-26T02:02:41.706Z,2.78
2022-07-26T02:05:10.118Z,2.72
2022-07-26T02:07:44.562Z,3.05
2022-07-26T02:10:13.953Z,3.08
2022-07-26T02:12:42.478Z,2.83
2022-07-26T02:15:11.243Z,3.28
2022-07-26T02:17:39.607Z,2.42
2022-07-26T02:20:08.524Z,2.50
2022-07-26T02:22:36.468Z,3.00
2022-07-26T02:25:05.814Z,3.10
2022-07-26T02:27:33.572Z,3.10
2022-07-26T02:30:01.993Z,3.28
2022-07-26T02:32:30.484Z,3.08
2022-07-26T02:34:58.198Z,3.00
2022-07-26T02:37:26.118Z,3.28
2022-07-26T02:39:53.964Z,2.53
2022-07-26T02:42:21.511Z,3.12
2022-07-26T02:44:49.131Z,2.90
2022-07-26T02:47:17.176Z,2.85
2022-07-26T02:49:45.459Z,2.72
2022-07-26T02:52:13.577Z,3.00
2022-07-26T02:54:45.168Z,3.08
2022-07-26T02:57:15.033Z,2.92
2022-07-26T02:59:42.940Z,2.95
2022-07-26T03:02:10.700Z,3.92
2022-07-26T03:04:39.285Z,3.08
2022-07-26T03:07:07.504Z,2.95
2022-07-26T03:09:35.228Z,2.85
2022-07-26T03:12:03.106Z,3.30
2022-07-26T03:14:30.985Z,2.80
2022-07-26T03:16:58.983Z,4.18
2022-07-26T03:19:26.620Z,4.22
2022-07-26T03:21:54.827Z,2.87
2022-07-26T03:24:22.785Z,3.30
2022-07-26T03:26:50.943Z,3.50
2022-07-26T03:29:19.351Z,3.40
2022-07-26T03:31:48.280Z,3.75
2022-07-26T03:34:16.393Z,3.33
2022-07-26T03:36:44.820Z,3.12
2022-07-26T03:39:12.735Z,3.28
2022-07-26T03:41:41.369Z,3.60
2022-07-26T03:44:09.613Z,3.78
2022-07-26T03:46:38.924Z,3.53
2022-07-26T03:49:10.883Z,3.60
2022-07-26T03:51:41.702Z,3.40
2022-07-26T03:54:11.959Z,3.75
2022-07-26T03:56:41.844Z,3.90
2022-07-26T03:59:11.365Z,4.30
2022-07-26T04:01:43.286Z,3.37
2022-07-26T04:04:13.033Z,3.72
2022-07-26T04:06:41.568Z,3.70
2022-07-26T04:09:12.346Z,3.10
2022-07-26T04:11:42.847Z,3.67
2022-07-26T04:14:12.010Z,3.65
2022-07-26T04:16:43.435Z,3.85
2022-07-26T04:19:12.380Z,3.60
2022-07-26T04:21:40.072Z,3.33
2022-07-26T04:24:08.769Z,3.33
2022-07-26T04:26:38.329Z,3.62
2022-07-26T04:29:08.454Z,3.25
2022-07-26T04:31:45.432Z,4.22
2022-07-26T04:34:13.448Z,3.17
2022-07-26T04:36:43.417Z,3.75
2022-07-26T04:39:15.182Z,3.55
2022-07-26T04:41:44.666Z,4.72
2022-07-26T04:44:13.823Z,3.28
2022-07-26T04:46:44.990Z,3.97
2022-07-26T04:49:14.168Z,4.37
2022-07-26T04:51:42.461Z,3.55
2022-07-26T04:54:10.732Z,3.53
2022-07-26T04:56:39.243Z,3.95
2022-07-26T04:59:07.632Z,3.62
2022-07-26T05:01:36.377Z,4.20
2022-07-26T05:04:05.273Z,4.50
2022-07-26T05:06:33.619Z,3.70
2022-07-26T05:09:04.174Z,3.97
2022-07-26T05:11:42.293Z,4.20
2022-07-26T05:14:10.346Z,3.67
2022-07-26T05:16:44.272Z,3.80
2022-07-26T05:19:14.393Z,3.50
2022-07-26T05:21:43.616Z,4.40
2022-07-26T05:24:11.467Z,3.83
2022-07-26T05:26:39.389Z,3.83
2022-07-26T05:29:07.879Z,4.12
2022-07-26T05:31:37.561Z,4.15
2022-07-26T05:34:05.601Z,4.30
2022-07-26T05:36:38.176Z,4.43
2022-07-26T05:39:07.159Z,4.00
2022-07-26T05:44:11.545Z,4.70
2022-07-26T05:46:41.480Z,4.20
2022-07-26T05:49:10.531Z,4.43
2022-07-26T05:51:38.662Z,5.10
2022-07-26T05:54:07.215Z,4.55
2022-07-26T05:56:36.132Z,4.10
2022-07-26T05:59:07.202Z,4.90
2022-07-26T06:01:40.369Z,4.45
2022-07-26T06:04:10.960Z,4.97
2022-07-26T06:06:39.401Z,5.03
2022-07-26T06:09:07.389Z,4.90
2022-07-26T06:11:44.541Z,4.53
2022-07-26T06:14:13.842Z,4.57
2022-07-26T06:16:43.100Z,4.70
2022-07-26T06:19:14.137Z,5.72
2022-07-26T06:21:42.897Z,4.72
2022-07-26T06:24:11.346Z,5.80
2022-07-26T06:26:47.164Z,5.12
2022-07-26T06:29:19.701Z,5.25
2022-07-26T06:31:48.414Z,5.40
2022-07-26T06:34:16.935Z,5.53
2022-07-26T06:36:46.712Z,5.47
2022-07-26T06:39:14.723Z,5.90
2022-07-26T06:41:44.864Z,5.72
2022-07-26T06:44:18.150Z,5.72
2022-07-26T06:46:46.148Z,5.43
2022-07-26T06:49:18.385Z,5.40
2022-07-26T06:51:51.088Z,4.97
2022-07-26T06:54:20.384Z,5.68
2022-07-26T06:56:49.596Z,5.22
2022-07-26T06:59:20.205Z,4.60
2022-07-26T07:01:59.233Z,4.93
2022-07-26T07:04:33.259Z,5.00
2022-07-26T07:07:09.168Z,4.60
2022-07-26T07:09:38.402Z,4.90
2022-07-26T07:12:09.403Z,5.28
2022-07-26T07:14:41.622Z,4.43
2022-07-26T07:17:12.206Z,4.45
2022-07-26T07:19:44.142Z,5.05
2022-07-26T07:22:13.224Z,5.18
2022-07-26T07:24:43.183Z,5.20
2022-07-26T07:27:12.419Z,4.75
2022-07-26T07:29:42.188Z,4.68
2022-07-26T07:32:15.909Z,4.57
2022-07-26T07:34:48.964Z,5.07
2022-07-26T07:37:20.139Z,6.18
2022-07-26T07:39:50.673Z,4.32
2022-07-26T07:42:21.501Z,4.72
2022-07-26T07:44:50.560Z,4.18
2022-07-26T07:47:18.671Z,3.92
2022-07-26T07:49:47.914Z,4.70
2022-07-26T07:52:18.931Z,4.20
2022-07-26T07:54:47.950Z,4.85
2022-07-26T07:57:22.178Z,4.70
2022-07-26T08:00:00.383Z,4.57
2022-07-26T08:02:35.651Z,3.80
2022-07-26T08:05:05.000Z,4.05
2022-07-26T08:07:43.168Z,3.97
2022-07-26T08:10:18.733Z,4.35
2022-07-26T08:12:55.332Z,4.45
2022-07-26T08:15:27.702Z,4.28
2022-07-26T08:17:56.187Z,4.53
2022-07-26T08:20:30.424Z,4.32
2022-07-26T08:23:00.262Z,4.05
2022-07-26T08:25:29.416Z,3.92
2022-07-26T08:28:04.000Z,3.78
2022-07-26T08:30:33.385Z,5.82
2022-07-26T08:33:02.643Z,4.20
2022-07-26T08:35:33.912Z,4.20
2022-07-26T08:38:08.429Z,3.90
2022-07-26T08:40:41.612Z,4.22
2022-07-26T08:43:11.589Z,4.10
2022-07-26T08:45:41.874Z,3.92
2022-07-26T08:48:17.604Z,3.80
2022-07-26T08:50:57.231Z,4.90
2022-07-26T08:53:38.152Z,3.78
2022-07-26T08:58:38.241Z,3.35
2022-07-26T09:01:09.588Z,4.25
2022-07-26T09:03:43.270Z,4.45
2022-07-26T09:06:14.010Z,4.75
2022-07-26T09:08:45.255Z,4.28
2022-07-26T09:14:05.212Z,3.80
2022-07-26T09:16:39.045Z,3.83
2022-07-26T09:19:23.226Z,4.95
2022-07-26T09:21:52.883Z,4.37
2022-07-26T09:24:35.073Z,3.80
2022-07-26T09:27:07.235Z,4.75
2022-07-26T09:29:47.252Z,4.15
2022-07-26T09:32:29.615Z,3.80
2022-07-26T09:35:36.992Z,3.97
2022-07-26T09:38:00.509Z,4.07
2022-07-26T09:40:36.455Z,3.92
2022-07-26T09:43:07.578Z,4.28
2022-07-26T09:45:39.279Z,4.87
2022-07-26T09:48:13.643Z,4.70
2022-07-26T09:50:50.259Z,4.72
2022-07-26T09:53:27.808Z,4.82
2022-07-26T09:55:59.272Z,4.65
2022-07-26T09:58:29.235Z,4.55
2022-07-26T10:03:40.514Z,6.15
2022-07-26T10:06:14.629Z,5.53
2022-07-26T10:08:43.798Z,5.47
2022-07-26T10:11:12.740Z,6.20
2022-07-26T10:13:49.141Z,5.65
2022-07-26T10:16:35.257Z,5.57
2022-07-26T10:19:11.846Z,5.95
2022-07-26T10:21:42.306Z,5.82
2022-07-26T10:24:26.545Z,5.85
2022-07-26T10:26:54.847Z,6.05
2022-07-26T10:29:27.251Z,6.22
2022-07-26T10:32:01.890Z,5.70
2022-07-26T10:34:47.376Z,5.57
2022-07-26T10:37:27.894Z,6.00
2022-07-26T10:40:22.466Z,6.03
2022-07-26T10:42:51.776Z,6.00
2022-07-26T10:45:26.172Z,6.05
2022-07-26T10:48:18.728Z,6.32
2022-07-26T10:50:50.316Z,6.40
2022-07-26T10:53:20.918Z,6.35
2022-07-26T10:55:55.356Z,7.12
2022-07-26T10:58:27.265Z,6.18
2022-07-26T11:01:05.579Z,6.93
2022-07-26T11:03:44.705Z,7.12
2022-07-26T11:06:20.324Z,6.70
2022-07-26T11:08:51.315Z,6.32
2022-07-26T11:14:14.750Z,6.20
2022-07-26T11:16:48.487Z,5.62
2022-07-26T11:19:21.364Z,6.30
2022-07-26T11:21:56.359Z,6.07
2022-07-26T11:24:27.258Z,6.20
2022-07-26T11:27:04.343Z,6.32
2022-07-26T11:29:38.684Z,5.97
2022-07-26T11:32:19.372Z,5.75
2022-07-26T11:35:01.605Z,6.40
2022-07-26T11:37:31.312Z,6.05
2022-07-26T11:40:00.597Z,5.87
2022-07-26T11:42:32.453Z,5.97
2022-07-26T11:45:03.489Z,5.87
2022-07-26T11:47:34.102Z,6.82
2022-07-26T11:50:16.808Z,6.10
2022-07-26T11:52:52.280Z,6.28
2022-07-26T11:55:31.665Z,5.97
2022-07-26T11:58:05.154Z,7.00
2022-07-26T12:00:39.735Z,6.87
2022-07-26T12:03:08.018Z,6.65
2022-07-26T12:05:37.136Z,7.55
2022-07-26T12:08:08.363Z,6.47
2022-07-26T12:10:38.925Z,7.00
2022-07-26T12:13:09.509Z,6.50
2022-07-26T12:15:48.331Z,7.03
2022-07-26T12:18:25.257Z,7.15
2022-07-26T12:21:04.467Z,6.68
2022-07-26T12:23:45.153Z,7.05
2022-07-26T12:26:23.365Z,6.20
2022-07-26T12:28:54.274Z,6.75
2022-07-26T12:31:34.438Z,5.90
2022-07-26T12:34:03.139Z,6.00
2022-07-26T12:36:33.997Z,5.70
2022-07-26T12:39:07.345Z,5.93
2022-07-26T12:41:40.248Z,5.00
2022-07-26T12:44:13.612Z,6.03
2022-07-26T12:46:47.467Z,5.37
2022-07-26T12:49:17.640Z,5.47
2022-07-26T12:51:46.266Z,6.87
2022-07-26T12:54:15.908Z,6.00
2022-07-26T12:56:44.028Z,6.68
2022-07-26T12:59:17.842Z,7.00
2022-07-26T13:01:46.576Z,6.78
2022-07-26T13:04:19.322Z,6.65
2022-07-26T13:07:10.579Z,6.55
2022-07-26T13:09:41.111Z,5.90
2022-07-26T13:12:13.819Z,6.18
2022-07-26T13:14:48.489Z,5.47
2022-07-26T13:17:19.478Z,5.78
2022-07-26T13:19:50.953Z,5.55
2022-07-26T13:22:20.435Z,5.80
2022-07-26T13:24:53.000Z,5.50
2022-07-26T13:27:22.527Z,5.68
2022-07-26T13:29:51.454Z,5.20
2022-07-26T13:32:24.589Z,5.47
2022-07-26T13:35:05.363Z,5.40
2022-07-26T13:37:39.718Z,5.00
2022-07-26T13:40:13.291Z,5.00
2022-07-26T13:42:51.314Z,5.00
2022-07-26T13:45:21.327Z,5.15
2022-07-26T13:47:49.936Z,4.53
2022-07-26T13:50:21.301Z,5.20
2022-07-26T13:52:53.299Z,5.60
2022-07-26T13:57:55.815Z,4.65
2022-07-26T14:00:34.540Z,4.82
2022-07-26T14:03:07.553Z,4.78
2022-07-26T14:05:38.213Z,4.80
2022-07-26T14:08:07.690Z,5.20
2022-07-26T14:10:42.767Z,4.62
2022-07-26T14:13:14.264Z,5.70
2022-07-26T14:15:45.360Z,4.97
2022-07-26T14:18:16.510Z,5.72
2022-07-26T14:20:48.352Z,5.50
2022-07-26T14:23:21.670Z,5.50
2022-07-26T14:25:59.530Z,5.32
2022-07-26T14:28:32.302Z,5.35
2022-07-26T14:31:04.285Z,5.47
2022-07-26T14:33:34.330Z,5.80
2022-07-26T14:36:02.806Z,6.68
2022-07-26T14:38:32.042Z,6.80
2022-07-26T14:41:06.843Z,6.40
2022-07-26T14:43:52.520Z,7.12
2022-07-26T14:46:32.345Z,6.57
2022-07-26T14:49:01.608Z,7.07
2022-07-26T14:51:42.299Z,6.40
2022-07-26T14:54:16.531Z,6.78
2022-07-26T14:56:50.309Z,7.35
2022-07-26T14:59:21.338Z,6.45
2022-07-26T15:01:51.689Z,7.20
2022-07-26T15:04:23.588Z,6.45
2022-07-26T15:06:53.513Z,6.93
2022-07-26T15:11:58.828Z,7.07
2022-07-26T15:14:44.280Z,7.57
2022-07-26T15:20:02.643Z,7.28
2022-07-26T15:22:33.040Z,6.97
2022-07-26T15:25:01.388Z,6.97
2022-07-26T15:30:13.182Z,7.18
2022-07-26T15:32:47.938Z,6.78
2022-07-26T15:35:29.524Z,7.70
2022-07-26T15:37:59.548Z,7.30
2022-07-26T15:40:27.898Z,7.37
2022-07-26T15:45:41.118Z,7.45
2022-07-26T15:48:19.437Z,8.02
2022-07-26T15:50:54.823Z,8.02
2022-07-26T15:53:31.300Z,7.47
2022-07-26T15:56:01.148Z,7.93
2022-07-26T15:58:30.099Z,8.27
2022-07-26T16:01:14.386Z,7.68
2022-07-26T16:04:03.550Z,8.82
2022-07-26T16:06:32.652Z,7.47
2022-07-26T16:09:19.328Z,7.82
2022-07-26T16:11:54.907Z,8.27
2022-07-26T16:14:29.757Z,7.90
2022-07-26T16:17:02.197Z,7.55
2022-07-26T16:22:14.367Z,8.65
2022-07-26T16:24:45.052Z,8.95
2022-07-26T16:27:20.361Z,8.02
2022-07-26T16:29:52.170Z,7.65
2022-07-26T16:32:21.835Z,8.60
2022-07-26T16:34:50.689Z,9.23
2022-07-26T16:37:25.774Z,8.70
2022-07-26T16:40:05.022Z,9.75
2022-07-26T16:42:57.382Z,9.75
2022-07-26T16:45:26.011Z,10.65
2022-07-26T16:47:59.996Z,10.88
2022-07-26T16:50:39.339Z,10.95
2022-07-26T16:53:13.293Z,11.88
2022-07-26T16:55:52.759Z,12.65
2022-07-26T16:58:31.914Z,12.40
2022-07-26T17:01:01.704Z,13.48
2022-07-26T17:03:40.311Z,12.18
2022-07-26T17:06:14.501Z,12.07
2022-07-26T17:08:44.925Z,12.20
2022-07-26T17:11:19.377Z,13.52
2022-07-26T17:13:56.815Z,12.00
2022-07-26T17:16:34.569Z,11.90
2022-07-26T17:19:06.378Z,12.07
2022-07-26T17:21:37.092Z,12.00
2022-07-26T17:24:10.415Z,12.23
2022-07-26T17:26:53.397Z,12.52
2022-07-26T17:29:29.906Z,12.25
2022-07-26T17:34:42.663Z,12.00
2022-07-26T17:37:12.908Z,12.00
2022-07-26T17:45:06.561Z,12.82
2022-07-26T17:47:35.831Z,12.95
2022-07-26T17:50:35.350Z,12.13
2022-07-26T17:53:13.551Z,12.00
2022-07-26T17:55:47.378Z,10.48
2022-07-26T17:58:19.833Z,10.80
2022-07-26T18:00:54.496Z,11.48
2022-07-26T18:08:38.930Z,11.05
2022-07-26T18:11:17.366Z,11.60
2022-07-26T18:13:50.508Z,12.18
2022-07-26T18:19:05.421Z,12.35
2022-07-26T18:21:38.932Z,12.32
2022-07-26T18:24:18.839Z,13.05
2022-07-26T18:27:01.229Z,13.68
2022-07-26T18:32:23.651Z,12.80
2022-07-26T18:34:58.326Z,13.13
2022-07-26T18:37:43.462Z,13.80
2022-07-26T18:40:28.608Z,13.48
2022-07-26T18:43:17.824Z,14.70
2022-07-26T18:46:12.445Z,14.43
2022-07-26T18:49:07.482Z,14.35
2022-07-26T18:52:08.217Z,15.15
2022-07-26T18:57:31.685Z,15.55
2022-07-26T19:00:18.358Z,15.50
2022-07-26T19:02:59.609Z,14.77
2022-07-26T19:05:35.753Z,16.25
2022-07-26T19:08:23.426Z,14.10
2022-07-26T19:11:03.535Z,15.85
2022-07-26T19:13:41.968Z,14.32
2022-07-26T19:19:03.439Z,14.25
2022-07-26T19:21:44.856Z,14.63
2022-07-26T19:24:33.497Z,14.48
2022-07-26T19:27:03.665Z,14.73
2022-07-26T19:29:42.478Z,14.90
2022-07-26T19:34:55.437Z,13.73
2022-07-26T19:37:38.083Z,14.45
2022-07-26T19:40:14.497Z,14.43
2022-07-26T19:42:54.542Z,14.45
2022-07-26T19:45:24.373Z,13.13
2022-07-26T19:47:56.648Z,14.50
2022-07-26T19:50:26.280Z,15.43
2022-07-26T19:53:02.230Z,14.75
2022-07-26T19:55:48.470Z,13.75
2022-07-26T19:58:20.717Z,14.95
2022-07-26T20:01:03.582Z,14.45
2022-07-26T20:03:39.493Z,13.85
2022-07-26T20:08:49.612Z,13.82
2022-07-26T20:11:28.538Z,14.73
2022-07-26T20:13:58.482Z,15.07
2022-07-26T20:16:38.408Z,14.77
2022-07-26T20:19:12.389Z,15.98
2022-07-26T20:21:48.620Z,15.90
2022-07-26T20:24:26.444Z,14.50
2022-07-26T20:27:04.401Z,15.00
2022-07-26T20:29:46.490Z,15.30
2022-07-26T20:32:21.275Z,15.95
2022-07-26T20:34:50.670Z,15.32
2022-07-26T20:37:20.835Z,14.75
2022-07-26T20:39:55.420Z,15.27
2022-07-26T20:42:26.359Z,15.57
2022-07-26T20:45:02.460Z,14.70
2022-07-26T20:47:40.648Z,14.68
2022-07-26T20:50:15.597Z,14.63
2022-07-26T20:52:52.108Z,13.57
2022-07-26T20:55:23.110Z,14.07
2022-07-26T20:57:55.913Z,14.35
2022-07-26T21:00:28.072Z,13.45
2022-07-26T21:02:59.256Z,14.02
2022-07-26T21:05:32.375Z,13.35
2022-07-26T21:08:00.640Z,12.55
2022-07-26T21:10:29.906Z,12.37
2022-07-26T21:13:01.123Z,12.73
2022-07-26T21:15:30.872Z,11.98
2022-07-26T21:18:01.656Z,11.70
2022-07-26T21:20:29.985Z,12.63
2022-07-26T21:23:15.985Z,12.07
2022-07-26T21:25:45.663Z,12.40
2022-07-26T21:28:15.222Z,13.43
2022-07-26T21:30:46.229Z,12.40
2022-07-26T21:33:15.721Z,11.82
2022-07-26T21:35:47.952Z,12.43
2022-07-26T21:38:16.454Z,12.20
2022-07-26T21:40:44.570Z,12.43
2022-07-26T21:43:12.468Z,11.00
2022-07-26T21:45:41.294Z,12.27
2022-07-26T21:48:09.495Z,10.52
2022-07-26T21:50:37.879Z,11.90
2022-07-26T21:53:06.540Z,11.55
2022-07-26T21:55:35.915Z,11.38
2022-07-26T21:58:04.923Z,11.32
2022-07-26T22:00:32.918Z,9.75
2022-07-26T22:03:01.086Z,10.18
2022-07-26T22:05:35.114Z,10.93
2022-07-26T22:08:03.319Z,10.25
2022-07-26T22:10:34.476Z,10.07
2022-07-26T22:13:05.584Z,10.65
2022-07-26T22:15:34.583Z,9.27
2022-07-26T22:18:02.790Z,9.90
2022-07-26T22:20:35.437Z,9.45
2022-07-26T22:23:09.520Z,9.93
2022-07-26T22:25:39.076Z,8.88
2022-07-26T22:28:09.810Z,8.32
2022-07-26T22:30:39.442Z,9.02
2022-07-26T22:33:08.243Z,8.98
2022-07-26T22:35:36.525Z,7.95
2022-07-26T22:38:07.402Z,7.97
2022-07-26T22:40:36.452Z,8.63
2022-07-26T22:43:04.351Z,8.40
2022-07-26T22:45:33.830Z,6.95
2022-07-26T22:48:03.154Z,8.25
2022-07-26T22:50:31.554Z,7.62
2022-07-26T22:53:01.439Z,7.45
2022-07-26T22:55:29.584Z,8.05
2022-07-26T22:57:57.419Z,7.37
2022-07-26T23:00:25.720Z,7.97
2022-07-26T23:02:53.731Z,7.57
2022-07-26T23:05:21.717Z,8.05
2022-07-26T23:07:59.179Z,7.45
2022-07-26T23:10:31.211Z,7.82
2022-07-26T23:13:00.796Z,7.37
2022-07-26T23:15:28.751Z,7.53
2022-07-26T23:17:57.706Z,8.00
2022-07-26T23:20:26.834Z,7.12
2022-07-26T23:22:54.686Z,7.78
2022-07-26T23:25:23.707Z,7.68
2022-07-26T23:27:52.983Z,7.57
2022-07-26T23:30:20.891Z,7.25
2022-07-26T23:32:48.578Z,7.40
2022-07-26T23:35:16.578Z,7.65
2022-07-26T23:37:44.159Z,8.10
2022-07-26T23:40:11.934Z,7.12
2022-07-26T23:42:40.083Z,7.40
2022-07-26T23:45:08.415Z,6.95
2022-07-26T23:47:35.950Z,7.22
2022-07-26T23:50:04.132Z,7.28
2022-07-26T23:52:42.409Z,6.55
2022-07-26T23:55:11.184Z,6.20
2022-07-26T23:57:39.240Z,6.40
